sensor_id;sensor_type;location;lat;lon;timestamp;P1;durP1;ratioP1;P2;durP2;ratioP2
32250;SDS011;41295;48.518;9.206;2022-10-03T00:01:41;4.03;;;3.63;;
32250;SDS011;41295;48.518;9.206;2022-10-03T00:04:06;5.15;;;3.83;;
32250;SDS011;41295;48.518;9.206;2022-10-03T00:06:27;8.05;;;4.38;;
32250;SDS011;41295;48.518;9.206;2022-10-03T00:11:14;8.85;;;3.50;;
32250;SDS011;41295;48.518;9.206;2022-10-03T00:13:28;7.60;;;3.45;;
32250;SDS011;41295;48.518;9.206;2022-10-03T00:15:43;4.65;;;3.17;;
32250;SDS011;41295;48.518;9.206;2022-10-03T00:17:58;6.97;;;3.67;;
32250;SDS011;41295;48.518;9.206;2022-10-03T00:22:18;5.40;;;3.60;;
32250;SDS011;41295;48.518;9.206;2022-10-03T00:24:34;6.90;;;4.05;;
32250;SDS011;41295;48.518;9.206;2022-10-03T00:26:50;6.82;;;4.68;;
32250;SDS011;41295;48.518;9.206;2022-10-03T00:29:14;8.02;;;4.90;;
32250;SDS011;41295;48.518;9.206;2022-10-03T00:31:36;10.35;;;5.47;;
32250;SDS011;41295;48.518;9.206;2022-10-03T00:33:49;13.13;;;5.00;;
32250;SDS011;41295;48.518;9.206;2022-10-03T00:36:05;8.80;;;5.47;;
32250;SDS011;41295;48.518;9.206;2022-10-03T00:38:20;7.27;;;5.70;;
32250;SDS011;41295;48.518;9.206;2022-10-03T00:40:36;8.98;;;5.45;;
32250;SDS011;41295;48.518;9.206;2022-10-03T00:45:51;13.40;;;6.22;;
32250;SDS011;41295;48.518;9.206;2022-10-03T00:48:19;8.43;;;5.50;;
32250;SDS011;41295;48.518;9.206;2022-10-03T00:50:45;9.70;;;5.90;;
32250;SDS011;41295;48.518;9.206;2022-10-03T00:53:07;14.32;;;7.32;;
32250;SDS011;41295;48.518;9.206;2022-10-03T00:55:24;11.18;;;7.40;;
32250;SDS011;41295;48.518;9.206;2022-10-03T00:57:41;12.10;;;7.60;;
32250;SDS011;41295;48.518;9.206;2022-10-03T01:00:00;10.52;;;6.25;;
32250;SDS011;41295;48.518;9.206;2022-10-03T01:02:18;11.05;;;7.05;;
32250;SDS011;41295;48.518;9.206;2022-10-03T01:04:36;11.27;;;8.05;;
32250;SDS011;41295;48.518;9.206;2022-10-03T01:06:54;11.23;;;7.03;;
32250;SDS011;41295;48.518;9.206;2022-10-03T01:11:43;11.32;;;8.10;;
32250;SDS011;41295;48.518;9.206;2022-10-03T01:13:58;12.52;;;8.73;;
32250;SDS011;41295;48.518;9.206;2022-10-03T01:16:14;12.70;;;8.15;;
32250;SDS011;41295;48.518;9.206;2022-10-03T01:18:28;14.20;;;8.52;;
32250;SDS011;41295;48.518;9.206;2022-10-03T01:20:44;12.38;;;8.93;;
32250;SDS011;41295;48.518;9.206;2022-10-03T01:23:01;18.73;;;9.02;;
32250;SDS011;41295;48.518;9.206;2022-10-03T01:25:16;14.02;;;8.43;;
32250;SDS011;41295;48.518;9.206;2022-10-03T01:27:25;12.88;;;8.48;;
32250;SDS011;41295;48.518;9.206;2022-10-03T01:30:02;13.50;;;7.90;;
32250;SDS011;41295;48.518;9.206;2022-10-03T01:32:25;9.93;;;7.60;;
32250;SDS011;41295;48.518;9.206;2022-10-03T01:34:37;10.02;;;7.35;;
32250;SDS011;41295;48.518;9.206;2022-10-03T01:36:46;16.02;;;7.88;;
32250;SDS011;41295;48.518;9.206;2022-10-03T01:41:03;13.70;;;7.10;;
32250;SDS011;41295;48.518;9.206;2022-10-03T01:43:14;11.93;;;7.28;;
32250;SDS011;41295;48.518;9.206;2022-10-03T01:45:25;10.15;;;6.97;;
32250;SDS011;41295;48.518;9.206;2022-10-03T01:49:40;9.25;;;6.70;;
32250;SDS011;41295;48.518;9.206;2022-10-03T01:51:50;10.85;;;6.28;;
32250;SDS011;41295;48.518;9.206;2022-10-03T01:54:04;9.18;;;7.10;;
32250;SDS011;41295;48.518;9.206;2022-10-03T01:56:17;9.63;;;6.68;;
32250;SDS011;41295;48.518;9.206;2022-10-03T02:00:39;8.88;;;5.75;;
32250;SDS011;41295;48.518;9.206;2022-10-03T02:02:58;6.82;;;5.53;;
32250;SDS011;41295;48.518;9.206;2022-10-03T02:05:10;7.55;;;5.50;;
32250;SDS011;41295;48.518;9.206;2022-10-03T02:07:21;11.15;;;5.20;;
32250;SDS011;41295;48.518;9.206;2022-10-03T02:09:32;6.75;;;5.20;;
32250;SDS011;41295;48.518;9.206;2022-10-03T02:11:53;9.80;;;5.72;;
32250;SDS011;41295;48.518;9.206;2022-10-03T02:14:06;7.38;;;5.68;;
32250;SDS011;41295;48.518;9.206;2022-10-03T02:16:28;10.00;;;5.18;;
32250;SDS011;41295;48.518;9.206;2022-10-03T02:18:36;5.47;;;4.43;;
32250;SDS011;41295;48.518;9.206;2022-10-03T02:20:46;5.53;;;4.65;;
32250;SDS011;41295;48.518;9.206;2022-10-03T02:22:53;5.97;;;4.85;;
32250;SDS011;41295;48.518;9.206;2022-10-03T02:25:02;9.68;;;5.43;;
32250;SDS011;41295;48.518;9.206;2022-10-03T02:32:55;7.88;;;4.88;;
32250;SDS011;41295;48.518;9.206;2022-10-03T02:35:18;9.07;;;4.90;;
32250;SDS011;41295;48.518;9.206;2022-10-03T02:37:41;6.32;;;5.10;;
32250;SDS011;41295;48.518;9.206;2022-10-03T02:40:10;6.25;;;5.25;;
32250;SDS011;41295;48.518;9.206;2022-10-03T02:45:25;8.05;;;5.30;;
32250;SDS011;41295;48.518;9.206;2022-10-03T02:48:01;6.78;;;5.35;;
32250;SDS011;41295;48.518;9.206;2022-10-03T02:58:58;9.73;;;5.80;;
32250;SDS011;41295;48.518;9.206;2022-10-03T03:04:03;8.88;;;6.30;;
32250;SDS011;41295;48.518;9.206;2022-10-03T03:06:39;13.55;;;7.30;;
32250;SDS011;41295;48.518;9.206;2022-10-03T03:09:01;10.73;;;6.63;;
32250;SDS011;41295;48.518;9.206;2022-10-03T03:11:31;12.02;;;6.50;;
32250;SDS011;41295;48.518;9.206;2022-10-03T03:16:29;7.68;;;5.80;;
32250;SDS011;41295;48.518;9.206;2022-10-03T03:19:01;7.82;;;5.90;;
32250;SDS011;41295;48.518;9.206;2022-10-03T03:21:25;12.50;;;5.55;;
32250;SDS011;41295;48.518;9.206;2022-10-03T03:23:45;9.98;;;6.20;;
32250;SDS011;41295;48.518;9.206;2022-10-03T03:26:27;7.97;;;5.05;;
32250;SDS011;41295;48.518;9.206;2022-10-03T03:28:43;6.63;;;5.38;;
32250;SDS011;41295;48.518;9.206;2022-10-03T03:31:00;10.45;;;6.28;;
32250;SDS011;41295;48.518;9.206;2022-10-03T03:33:13;9.45;;;6.22;;
32250;SDS011;41295;48.518;9.206;2022-10-03T03:35:29;13.07;;;6.88;;
32250;SDS011;41295;48.518;9.206;2022-10-03T03:37:42;7.18;;;5.85;;
32250;SDS011;41295;48.518;9.206;2022-10-03T03:39:58;7.65;;;6.05;;
32250;SDS011;41295;48.518;9.206;2022-10-03T03:44:52;8.93;;;6.40;;
32250;SDS011;41295;48.518;9.206;2022-10-03T03:47:15;17.30;;;6.32;;
32250;SDS011;41295;48.518;9.206;2022-10-03T03:49:37;10.38;;;6.32;;
32250;SDS011;41295;48.518;9.206;2022-10-03T03:51:52;9.80;;;6.35;;
32250;SDS011;41295;48.518;9.206;2022-10-03T03:54:05;11.27;;;7.07;;
32250;SDS011;41295;48.518;9.206;2022-10-03T03:56:27;14.35;;;7.65;;
32250;SDS011;41295;48.518;9.206;2022-10-03T03:58:42;14.05;;;7.03;;
32250;SDS011;41295;48.518;9.206;2022-10-03T04:00:57;11.52;;;6.80;;
32250;SDS011;41295;48.518;9.206;2022-10-03T04:03:23;10.48;;;7.28;;
32250;SDS011;41295;48.518;9.206;2022-10-03T04:05:51;11.73;;;8.07;;
32250;SDS011;41295;48.518;9.206;2022-10-03T04:08:19;9.25;;;7.80;;
32250;SDS011;41295;48.518;9.206;2022-10-03T04:10:39;14.50;;;7.70;;
32250;SDS011;41295;48.518;9.206;2022-10-03T04:13:03;11.93;;;7.65;;
32250;SDS011;41295;48.518;9.206;2022-10-03T04:15:29;11.43;;;7.85;;
32250;SDS011;41295;48.518;9.206;2022-10-03T04:20:36;10.13;;;7.70;;
32250;SDS011;41295;48.518;9.206;2022-10-03T04:22:54;12.88;;;7.88;;
32250;SDS011;41295;48.518;9.206;2022-10-03T04:25:15;12.18;;;7.78;;
32250;SDS011;41295;48.518;9.206;2022-10-03T04:27:36;13.35;;;7.40;;
32250;SDS011;41295;48.518;9.206;2022-10-03T04:29:58;9.65;;;6.82;;
32250;SDS011;41295;48.518;9.206;2022-10-03T04:32:13;11.60;;;7.10;;
32250;SDS011;41295;48.518;9.206;2022-10-03T04:34:33;8.77;;;7.18;;
32250;SDS011;41295;48.518;9.206;2022-10-03T04:36:54;11.27;;;6.80;;
32250;SDS011;41295;48.518;9.206;2022-10-03T04:39:05;14.23;;;6.95;;
32250;SDS011;41295;48.518;9.206;2022-10-03T04:41:24;9.35;;;7.10;;
32250;SDS011;41295;48.518;9.206;2022-10-03T04:43:34;11.20;;;7.55;;
32250;SDS011;41295;48.518;9.206;2022-10-03T04:45:47;20.17;;;8.27;;
32250;SDS011;41295;48.518;9.206;2022-10-03T04:48:03;15.35;;;7.43;;
32250;SDS011;41295;48.518;9.206;2022-10-03T04:50:17;22.40;;;7.00;;
32250;SDS011;41295;48.518;9.206;2022-10-03T04:52:27;8.27;;;6.75;;
32250;SDS011;41295;48.518;9.206;2022-10-03T04:54:40;10.85;;;7.05;;
32250;SDS011;41295;48.518;9.206;2022-10-03T04:56:54;69.20;;;8.88;;
32250;SDS011;41295;48.518;9.206;2022-10-03T04:59:03;26.75;;;8.02;;
32250;SDS011;41295;48.518;9.206;2022-10-03T05:01:26;20.65;;;7.30;;
32250;SDS011;41295;48.518;9.206;2022-10-03T05:03:39;27.60;;;7.28;;
32250;SDS011;41295;48.518;9.206;2022-10-03T05:05:48;91.45;;;9.57;;
32250;SDS011;41295;48.518;9.206;2022-10-03T05:08:00;42.03;;;8.07;;
32250;SDS011;41295;48.518;9.206;2022-10-03T05:10:19;10.57;;;7.25;;
32250;SDS011;41295;48.518;9.206;2022-10-03T05:12:36;11.07;;;7.05;;
32250;SDS011;41295;48.518;9.206;2022-10-03T05:14:50;10.40;;;7.37;;
32250;SDS011;41295;48.518;9.206;2022-10-03T05:17:06;11.85;;;6.57;;
32250;SDS011;41295;48.518;9.206;2022-10-03T05:19:40;10.32;;;6.47;;
32250;SDS011;41295;48.518;9.206;2022-10-03T05:21:49;8.15;;;5.80;;
32250;SDS011;41295;48.518;9.206;2022-10-03T05:24:03;7.75;;;5.63;;
32250;SDS011;41295;48.518;9.206;2022-10-03T05:26:21;11.77;;;6.18;;
32250;SDS011;41295;48.518;9.206;2022-10-03T05:28:48;9.52;;;6.80;;
32250;SDS011;41295;48.518;9.206;2022-10-03T05:30:57;18.63;;;7.45;;
32250;SDS011;41295;48.518;9.206;2022-10-03T05:33:06;11.38;;;7.72;;
32250;SDS011;41295;48.518;9.206;2022-10-03T05:35:22;12.65;;;8.15;;
32250;SDS011;41295;48.518;9.206;2022-10-03T05:40:05;11.13;;;7.88;;
32250;SDS011;41295;48.518;9.206;2022-10-03T05:45:04;11.70;;;7.70;;
32250;SDS011;41295;48.518;9.206;2022-10-03T05:47:25;10.27;;;7.68;;
32250;SDS011;41295;48.518;9.206;2022-10-03T05:49:53;12.63;;;7.50;;
32250;SDS011;41295;48.518;9.206;2022-10-03T05:52:29;26.48;;;8.88;;
32250;SDS011;41295;48.518;9.206;2022-10-03T05:54:50;12.50;;;8.57;;
32250;SDS011;41295;48.518;9.206;2022-10-03T05:57:25;10.75;;;7.68;;
32250;SDS011;41295;48.518;9.206;2022-10-03T05:59:47;10.30;;;8.13;;
32250;SDS011;41295;48.518;9.206;2022-10-03T06:02:15;13.90;;;8.45;;
32250;SDS011;41295;48.518;9.206;2022-10-03T06:07:04;15.80;;;9.80;;
32250;SDS011;41295;48.518;9.206;2022-10-03T06:09:29;12.98;;;9.55;;
32250;SDS011;41295;48.518;9.206;2022-10-03T06:11:53;15.18;;;9.77;;
32250;SDS011;41295;48.518;9.206;2022-10-03T06:14:06;18.98;;;9.48;;
32250;SDS011;41295;48.518;9.206;2022-10-03T06:16:26;16.00;;;9.55;;
32250;SDS011;41295;48.518;9.206;2022-10-03T06:18:50;14.98;;;8.75;;
32250;SDS011;41295;48.518;9.206;2022-10-03T06:26:42;17.25;;;9.73;;
32250;SDS011;41295;48.518;9.206;2022-10-03T06:28:57;15.80;;;9.43;;
32250;SDS011;41295;48.518;9.206;2022-10-03T06:34:17;15.15;;;9.82;;
32250;SDS011;41295;48.518;9.206;2022-10-03T06:44:36;18.80;;;9.77;;
32250;SDS011;41295;48.518;9.206;2022-10-03T06:47:08;22.17;;;9.90;;
32250;SDS011;41295;48.518;9.206;2022-10-03T06:49:51;19.88;;;11.18;;
32250;SDS011;41295;48.518;9.206;2022-10-03T06:52:29;18.52;;;9.93;;
32250;SDS011;41295;48.518;9.206;2022-10-03T06:54:55;17.20;;;9.80;;
32250;SDS011;41295;48.518;9.206;2022-10-03T06:57:27;22.83;;;11.05;;
32250;SDS011;41295;48.518;9.206;2022-10-03T06:59:57;22.83;;;10.68;;
32250;SDS011;41295;48.518;9.206;2022-10-03T07:02:26;18.42;;;10.55;;
32250;SDS011;41295;48.518;9.206;2022-10-03T07:07:29;18.85;;;10.40;;
32250;SDS011;41295;48.518;9.206;2022-10-03T07:10:02;16.50;;;9.75;;
32250;SDS011;41295;48.518;9.206;2022-10-03T07:17:48;18.55;;;10.20;;
32250;SDS011;41295;48.518;9.206;2022-10-03T07:20:17;18.13;;;9.80;;
32250;SDS011;41295;48.518;9.206;2022-10-03T07:22:59;17.67;;;8.65;;
32250;SDS011;41295;48.518;9.206;2022-10-03T07:25:32;18.85;;;10.25;;
32250;SDS011;41295;48.518;9.206;2022-10-03T07:27:50;16.58;;;9.93;;
32250;SDS011;41295;48.518;9.206;2022-10-03T07:30:02;17.80;;;10.35;;
32250;SDS011;41295;48.518;9.206;2022-10-03T07:32:15;16.63;;;9.88;;
32250;SDS011;41295;48.518;9.206;2022-10-03T07:37:22;24.38;;;10.05;;
32250;SDS011;41295;48.518;9.206;2022-10-03T07:44:59;16.88;;;9.55;;
32250;SDS011;41295;48.518;9.206;2022-10-03T07:49:57;18.75;;;10.02;;
32250;SDS011;41295;48.518;9.206;2022-10-03T07:52:49;18.77;;;10.38;;
32250;SDS011;41295;48.518;9.206;2022-10-03T07:57:45;20.00;;;11.55;;
32250;SDS011;41295;48.518;9.206;2022-10-03T08:00:09;22.08;;;11.93;;
32250;SDS011;41295;48.518;9.206;2022-10-03T08:05:15;22.83;;;13.60;;
32250;SDS011;41295;48.518;9.206;2022-10-03T08:07:34;25.30;;;13.65;;
32250;SDS011;41295;48.518;9.206;2022-10-03T08:10:00;25.05;;;13.00;;
32250;SDS011;41295;48.518;9.206;2022-10-03T08:12:27;22.85;;;12.32;;
32250;SDS011;41295;48.518;9.206;2022-10-03T08:14:44;24.08;;;12.93;;
32250;SDS011;41295;48.518;9.206;2022-10-03T08:17:02;23.15;;;13.30;;
32250;SDS011;41295;48.518;9.206;2022-10-03T08:19:20;25.63;;;13.48;;
32250;SDS011;41295;48.518;9.206;2022-10-03T08:21:36;28.30;;;14.07;;
32250;SDS011;41295;48.518;9.206;2022-10-03T08:24:03;23.30;;;14.00;;
32250;SDS011;41295;48.518;9.206;2022-10-03T08:26:29;28.58;;;14.23;;
32250;SDS011;41295;48.518;9.206;2022-10-03T08:28:51;28.42;;;13.93;;
32250;SDS011;41295;48.518;9.206;2022-10-03T08:31:15;26.55;;;12.43;;
32250;SDS011;41295;48.518;9.206;2022-10-03T08:33:38;22.40;;;12.10;;
32250;SDS011;41295;48.518;9.206;2022-10-03T08:38:56;22.70;;;11.90;;
32250;SDS011;41295;48.518;9.206;2022-10-03T08:41:23;22.65;;;13.20;;
32250;SDS011;41295;48.518;9.206;2022-10-03T08:49:24;24.55;;;13.13;;
32250;SDS011;41295;48.518;9.206;2022-10-03T08:51:49;22.38;;;12.10;;
32250;SDS011;41295;48.518;9.206;2022-10-03T08:54:08;22.90;;;12.82;;
32250;SDS011;41295;48.518;9.206;2022-10-03T08:56:26;24.88;;;13.07;;
32250;SDS011;41295;48.518;9.206;2022-10-03T09:01:27;23.88;;;12.77;;
32250;SDS011;41295;48.518;9.206;2022-10-03T09:06:48;25.50;;;12.00;;
32250;SDS011;41295;48.518;9.206;2022-10-03T09:09:24;19.88;;;11.82;;
32250;SDS011;41295;48.518;9.206;2022-10-03T09:16:58;22.20;;;10.48;;
32250;SDS011;41295;48.518;9.206;2022-10-03T09:24:29;18.15;;;10.48;;
32250;SDS011;41295;48.518;9.206;2022-10-03T09:29:34;16.73;;;10.55;;
32250;SDS011;41295;48.518;9.206;2022-10-03T09:32:00;18.77;;;11.30;;
32250;SDS011;41295;48.518;9.206;2022-10-03T09:34:40;15.05;;;8.07;;
32250;SDS011;41295;48.518;9.206;2022-10-03T09:37:10;12.27;;;7.97;;
32250;SDS011;41295;48.518;9.206;2022-10-03T09:39:40;15.43;;;8.25;;
32250;SDS011;41295;48.518;9.206;2022-10-03T09:42:41;14.20;;;8.10;;
32250;SDS011;41295;48.518;9.206;2022-10-03T09:45:09;13.70;;;8.38;;
32250;SDS011;41295;48.518;9.206;2022-10-03T09:47:30;19.15;;;8.25;;
32250;SDS011;41295;48.518;9.206;2022-10-03T09:53:03;16.52;;;8.27;;
32250;SDS011;41295;48.518;9.206;2022-10-03T09:55:29;16.20;;;8.90;;
32250;SDS011;41295;48.518;9.206;2022-10-03T09:57:50;17.88;;;9.63;;
32250;SDS011;41295;48.518;9.206;2022-10-03T10:05:13;14.73;;;8.02;;
32250;SDS011;41295;48.518;9.206;2022-10-03T10:07:59;19.33;;;9.32;;
32250;SDS011;41295;48.518;9.206;2022-10-03T10:10:26;16.65;;;8.98;;
32250;SDS011;41295;48.518;9.206;2022-10-03T10:15:18;18.25;;;10.23;;
32250;SDS011;41295;48.518;9.206;2022-10-03T10:20:24;19.73;;;10.95;;
32250;SDS011;41295;48.518;9.206;2022-10-03T10:22:45;21.00;;;11.32;;
32250;SDS011;41295;48.518;9.206;2022-10-03T10:25:17;19.00;;;10.63;;
32250;SDS011;41295;48.518;9.206;2022-10-03T10:30:20;21.48;;;11.48;;
32250;SDS011;41295;48.518;9.206;2022-10-03T10:37:54;21.05;;;11.25;;
32250;SDS011;41295;48.518;9.206;2022-10-03T10:40:33;15.82;;;9.93;;
32250;SDS011;41295;48.518;9.206;2022-10-03T10:45:45;19.92;;;11.02;;
32250;SDS011;41295;48.518;9.206;2022-10-03T10:48:21;20.67;;;10.70;;
32250;SDS011;41295;48.518;9.206;2022-10-03T10:50:51;14.63;;;9.43;;
32250;SDS011;41295;48.518;9.206;2022-10-03T10:56:07;19.98;;;9.98;;
32250;SDS011;41295;48.518;9.206;2022-10-03T10:58:47;22.30;;;9.65;;
32250;SDS011;41295;48.518;9.206;2022-10-03T11:01:48;14.82;;;7.70;;
32250;SDS011;41295;48.518;9.206;2022-10-03T11:04:22;13.43;;;6.78;;
32250;SDS011;41295;48.518;9.206;2022-10-03T11:12:56;14.95;;;6.43;;
32250;SDS011;41295;48.518;9.206;2022-10-03T11:15:30;13.10;;;6.97;;
32250;SDS011;41295;48.518;9.206;2022-10-03T11:18:01;10.05;;;7.25;;
32250;SDS011;41295;48.518;9.206;2022-10-03T11:25:57;15.13;;;7.10;;
32250;SDS011;41295;48.518;9.206;2022-10-03T11:28:43;13.52;;;6.05;;
32250;SDS011;41295;48.518;9.206;2022-10-03T11:31:29;9.85;;;5.75;;
32250;SDS011;41295;48.518;9.206;2022-10-03T11:33:57;10.73;;;6.10;;
32250;SDS011;41295;48.518;9.206;2022-10-03T11:39:00;15.32;;;6.25;;
32250;SDS011;41295;48.518;9.206;2022-10-03T11:41:08;9.43;;;5.90;;
32250;SDS011;41295;48.518;9.206;2022-10-03T11:43:38;10.93;;;5.38;;
32250;SDS011;41295;48.518;9.206;2022-10-03T11:46:10;10.57;;;5.70;;
32250;SDS011;41295;48.518;9.206;2022-10-03T11:48:37;8.38;;;4.70;;
32250;SDS011;41295;48.518;9.206;2022-10-03T11:50:44;14.45;;;5.55;;
32250;SDS011;41295;48.518;9.206;2022-10-03T11:52:57;11.05;;;5.10;;
32250;SDS011;41295;48.518;9.206;2022-10-03T11:55:17;8.65;;;4.55;;
32250;SDS011;41295;48.518;9.206;2022-10-03T11:57:27;10.43;;;5.10;;
32250;SDS011;41295;48.518;9.206;2022-10-03T11:59:35;8.75;;;4.50;;
32250;SDS011;41295;48.518;9.206;2022-10-03T12:01:55;14.13;;;4.60;;
32250;SDS011;41295;48.518;9.206;2022-10-03T12:04:16;9.35;;;4.63;;
32250;SDS011;41295;48.518;9.206;2022-10-03T12:06:36;9.90;;;4.20;;
32250;SDS011;41295;48.518;9.206;2022-10-03T12:09:08;12.02;;;4.20;;
32250;SDS011;41295;48.518;9.206;2022-10-03T12:11:20;13.18;;;4.65;;
32250;SDS011;41295;48.518;9.206;2022-10-03T12:13:28;10.25;;;4.53;;
32250;SDS011;41295;48.518;9.206;2022-10-03T12:15:38;11.85;;;4.20;;
32250;SDS011;41295;48.518;9.206;2022-10-03T12:17:45;11.30;;;4.38;;
32250;SDS011;41295;48.518;9.206;2022-10-03T12:19:58;12.05;;;4.00;;
32250;SDS011;41295;48.518;9.206;2022-10-03T12:22:10;7.95;;;4.20;;
32250;SDS011;41295;48.518;9.206;2022-10-03T12:24:22;9.13;;;4.22;;
32250;SDS011;41295;48.518;9.206;2022-10-03T12:26:30;8.95;;;4.72;;
32250;SDS011;41295;48.518;9.206;2022-10-03T12:28:45;6.60;;;4.32;;
32250;SDS011;41295;48.518;9.206;2022-10-03T12:30:55;7.68;;;4.40;;
32250;SDS011;41295;48.518;9.206;2022-10-03T12:33:17;8.55;;;4.07;;
32250;SDS011;41295;48.518;9.206;2022-10-03T12:35:37;8.93;;;4.15;;
32250;SDS011;41295;48.518;9.206;2022-10-03T12:37:50;16.63;;;5.95;;
32250;SDS011;41295;48.518;9.206;2022-10-03T12:40:04;10.63;;;5.13;;
32250;SDS011;41295;48.518;9.206;2022-10-03T12:42:21;8.77;;;4.50;;
32250;SDS011;41295;48.518;9.206;2022-10-03T12:44:33;13.75;;;4.55;;
32250;SDS011;41295;48.518;9.206;2022-10-03T12:46:48;11.52;;;4.43;;
32250;SDS011;41295;48.518;9.206;2022-10-03T12:49:04;6.85;;;4.35;;
32250;SDS011;41295;48.518;9.206;2022-10-03T12:51:14;10.77;;;5.03;;
32250;SDS011;41295;48.518;9.206;2022-10-03T12:53:30;9.52;;;4.72;;
32250;SDS011;41295;48.518;9.206;2022-10-03T12:55:43;22.58;;;11.55;;
32250;SDS011;41295;48.518;9.206;2022-10-03T12:57:59;12.20;;;5.78;;
32250;SDS011;41295;48.518;9.206;2022-10-03T13:00:11;12.18;;;5.47;;
32250;SDS011;41295;48.518;9.206;2022-10-03T13:02:22;10.15;;;4.90;;
32250;SDS011;41295;48.518;9.206;2022-10-03T13:04:32;14.63;;;6.38;;
32250;SDS011;41295;48.518;9.206;2022-10-03T13:06:43;12.45;;;5.80;;
32250;SDS011;41295;48.518;9.206;2022-10-03T13:09:10;10.18;;;4.57;;
32250;SDS011;41295;48.518;9.206;2022-10-03T13:11:27;9.15;;;4.13;;
32250;SDS011;41295;48.518;9.206;2022-10-03T13:13:40;8.82;;;3.85;;
32250;SDS011;41295;48.518;9.206;2022-10-03T13:16:09;12.15;;;5.13;;
32250;SDS011;41295;48.518;9.206;2022-10-03T13:20:49;8.60;;;4.63;;
32250;SDS011;41295;48.518;9.206;2022-10-03T13:23:02;12.18;;;4.50;;
32250;SDS011;41295;48.518;9.206;2022-10-03T13:27:25;11.07;;;4.93;;
32250;SDS011;41295;48.518;9.206;2022-10-03T13:29:38;9.07;;;4.00;;
32250;SDS011;41295;48.518;9.206;2022-10-03T13:31:57;9.77;;;4.30;;
32250;SDS011;41295;48.518;9.206;2022-10-03T13:34:10;8.98;;;4.20;;
32250;SDS011;41295;48.518;9.206;2022-10-03T13:36:20;9.68;;;4.25;;
32250;SDS011;41295;48.518;9.206;2022-10-03T13:38:43;15.80;;;4.32;;
32250;SDS011;41295;48.518;9.206;2022-10-03T13:41:03;10.57;;;4.75;;
32250;SDS011;41295;48.518;9.206;2022-10-03T13:43:11;11.23;;;4.18;;
32250;SDS011;41295;48.518;9.206;2022-10-03T13:45:20;12.02;;;4.32;;
32250;SDS011;41295;48.518;9.206;2022-10-03T13:47:27;10.77;;;4.10;;
32250;SDS011;41295;48.518;9.206;2022-10-03T13:49:48;11.00;;;4.65;;
32250;SDS011;41295;48.518;9.206;2022-10-03T13:51:54;9.82;;;4.03;;
32250;SDS011;41295;48.518;9.206;2022-10-03T13:54:03;8.13;;;3.90;;
32250;SDS011;41295;48.518;9.206;2022-10-03T13:56:12;8.05;;;3.35;;
32250;SDS011;41295;48.518;9.206;2022-10-03T13:58:27;9.32;;;3.80;;
32250;SDS011;41295;48.518;9.206;2022-10-03T14:00:41;9.57;;;4.63;;
32250;SDS011;41295;48.518;9.206;2022-10-03T14:03:15;10.57;;;3.92;;
32250;SDS011;41295;48.518;9.206;2022-10-03T14:05:30;6.10;;;3.53;;
32250;SDS011;41295;48.518;9.206;2022-10-03T14:07:56;9.52;;;4.07;;
32250;SDS011;41295;48.518;9.206;2022-10-03T14:10:08;11.93;;;4.28;;
32250;SDS011;41295;48.518;9.206;2022-10-03T14:12:33;9.05;;;4.13;;
32250;SDS011;41295;48.518;9.206;2022-10-03T14:15:01;13.27;;;4.85;;
32250;SDS011;41295;48.518;9.206;2022-10-03T14:17:19;11.30;;;4.50;;
32250;SDS011;41295;48.518;9.206;2022-10-03T14:19:32;10.05;;;4.40;;
32250;SDS011;41295;48.518;9.206;2022-10-03T14:21:54;8.33;;;3.90;;
32250;SDS011;41295;48.518;9.206;2022-10-03T14:24:16;7.00;;;3.42;;
32250;SDS011;41295;48.518;9.206;2022-10-03T14:26:27;8.90;;;3.88;;
32250;SDS011;41295;48.518;9.206;2022-10-03T14:28:42;10.63;;;3.80;;
32250;SDS011;41295;48.518;9.206;2022-10-03T14:30:55;10.45;;;3.55;;
32250;SDS011;41295;48.518;9.206;2022-10-03T14:33:11;7.57;;;3.63;;
32250;SDS011;41295;48.518;9.206;2022-10-03T14:35:27;7.63;;;3.97;;
32250;SDS011;41295;48.518;9.206;2022-10-03T14:37:39;14.43;;;5.13;;
32250;SDS011;41295;48.518;9.206;2022-10-03T14:39:50;9.55;;;4.25;;
32250;SDS011;41295;48.518;9.206;2022-10-03T14:42:24;12.13;;;4.40;;
32250;SDS011;41295;48.518;9.206;2022-10-03T14:44:36;9.35;;;3.90;;
32250;SDS011;41295;48.518;9.206;2022-10-03T14:46:44;17.15;;;4.45;;
32250;SDS011;41295;48.518;9.206;2022-10-03T14:48:53;11.05;;;4.40;;
32250;SDS011;41295;48.518;9.206;2022-10-03T14:51:00;8.73;;;3.85;;
32250;SDS011;41295;48.518;9.206;2022-10-03T14:53:13;10.35;;;4.03;;
32250;SDS011;41295;48.518;9.206;2022-10-03T14:55:20;9.85;;;4.05;;
32250;SDS011;41295;48.518;9.206;2022-10-03T14:57:31;7.35;;;4.05;;
32250;SDS011;41295;48.518;9.206;2022-10-03T14:59:57;8.77;;;4.38;;
32250;SDS011;41295;48.518;9.206;2022-10-03T15:04:27;9.75;;;4.07;;
32250;SDS011;41295;48.518;9.206;2022-10-03T15:08:54;9.32;;;4.47;;
32250;SDS011;41295;48.518;9.206;2022-10-03T15:11:00;6.95;;;3.67;;
32250;SDS011;41295;48.518;9.206;2022-10-03T15:13:06;10.40;;;4.05;;
32250;SDS011;41295;48.518;9.206;2022-10-03T15:15:14;8.60;;;4.13;;
32250;SDS011;41295;48.518;9.206;2022-10-03T15:17:19;7.78;;;3.95;;
32250;SDS011;41295;48.518;9.206;2022-10-03T15:19:27;8.65;;;3.97;;
32250;SDS011;41295;48.518;9.206;2022-10-03T15:21:32;10.85;;;4.35;;
32250;SDS011;41295;48.518;9.206;2022-10-03T15:23:37;7.57;;;4.03;;
32250;SDS011;41295;48.518;9.206;2022-10-03T15:25:43;8.32;;;3.85;;
32250;SDS011;41295;48.518;9.206;2022-10-03T15:27:54;13.30;;;4.32;;
32250;SDS011;41295;48.518;9.206;2022-10-03T15:29:59;9.75;;;3.83;;
32250;SDS011;41295;48.518;9.206;2022-10-03T15:32:15;8.77;;;3.38;;
32250;SDS011;41295;48.518;9.206;2022-10-03T15:34:23;11.48;;;4.35;;
32250;SDS011;41295;48.518;9.206;2022-10-03T15:36:32;9.38;;;4.28;;
32250;SDS011;41295;48.518;9.206;2022-10-03T15:38:39;8.77;;;4.55;;
32250;SDS011;41295;48.518;9.206;2022-10-03T15:40:46;10.43;;;4.63;;
32250;SDS011;41295;48.518;9.206;2022-10-03T15:43:00;10.88;;;4.38;;
32250;SDS011;41295;48.518;9.206;2022-10-03T15:45:05;10.43;;;4.30;;
32250;SDS011;41295;48.518;9.206;2022-10-03T15:47:11;8.88;;;4.10;;
32250;SDS011;41295;48.518;9.206;2022-10-03T15:49:18;9.73;;;4.10;;
32250;SDS011;41295;48.518;9.206;2022-10-03T15:51:26;7.78;;;3.72;;
32250;SDS011;41295;48.518;9.206;2022-10-03T15:53:33;9.68;;;4.22;;
32250;SDS011;41295;48.518;9.206;2022-10-03T15:55:39;9.57;;;4.13;;
32250;SDS011;41295;48.518;9.206;2022-10-03T15:57:47;13.32;;;4.20;;
32250;SDS011;41295;48.518;9.206;2022-10-03T15:59:54;9.50;;;4.63;;
32250;SDS011;41295;48.518;9.206;2022-10-03T16:02:05;13.00;;;3.95;;
32250;SDS011;41295;48.518;9.206;2022-10-03T16:04:18;9.07;;;3.78;;
32250;SDS011;41295;48.518;9.206;2022-10-03T16:06:24;18.98;;;4.47;;
32250;SDS011;41295;48.518;9.206;2022-10-03T16:08:38;9.27;;;4.10;;
32250;SDS011;41295;48.518;9.206;2022-10-03T16:10:56;8.95;;;4.10;;
32250;SDS011;41295;48.518;9.206;2022-10-03T16:13:12;14.60;;;4.40;;
32250;SDS011;41295;48.518;9.206;2022-10-03T16:15:28;13.88;;;4.13;;
32250;SDS011;41295;48.518;9.206;2022-10-03T16:17:44;8.27;;;4.70;;
32250;SDS011;41295;48.518;9.206;2022-10-03T16:19:51;13.98;;;5.32;;
32250;SDS011;41295;48.518;9.206;2022-10-03T16:22:00;12.38;;;4.60;;
32250;SDS011;41295;48.518;9.206;2022-10-03T16:24:29;14.60;;;4.10;;
32250;SDS011;41295;48.518;9.206;2022-10-03T16:26:38;11.85;;;4.22;;
32250;SDS011;41295;48.518;9.206;2022-10-03T16:28:51;10.63;;;4.60;;
32250;SDS011;41295;48.518;9.206;2022-10-03T16:31:05;22.92;;;10.35;;
32250;SDS011;41295;48.518;9.206;2022-10-03T16:33:15;13.65;;;6.15;;
32250;SDS011;41295;48.518;9.206;2022-10-03T16:35:26;13.05;;;5.43;;
32250;SDS011;41295;48.518;9.206;2022-10-03T16:37:33;8.68;;;4.43;;